Nepheli — 3FNC5 — position and weather

sailwx.info

Track history (hours):
 
Tides and Currents Weather Stations Pressure Air Temp Water Temp Dewpoint Dewpoint Depression Visibility Wind Speed Wind Dir Waves Ship Positions

Nepheli

Last reported at 2016-May-21 11:29 UTC. Time now 2016-May-25 22:43 UTC.
Position N 34°33' E 032°40'.

Length 90 m; draft 5.5 m.

Type: Tanker. MMSI: 370679000.

Date/timePositionNaut miles runAvg speedWind from/ knotsBaromVisibWave heightAir tempDewpointWater temp
2016-May-21 11:29N 34°33' E 032°40'8 8.2
2016-May-21 10:33N 34°33' E 032°49'8 8.2
2016-May-21 09:33N 34°30' E 032°59'7 7.1
2016-May-21 08:33N 34°36' E 033°04'4 4.0
2016-May-21 07:33N 34°40' E 033°04'0 0.0
2016-May-21 06:33N 34°40' E 033°04'1 1.3
2016-May-21 05:33N 34°40' E 033°05'  
2016-May-18 03:15N 34°30' E 032°56'6 8.1
2016-May-18 02:33N 34°31' E 032°50'  
2016-May-15 13:33N 37°31' E 023°50'8 7.9
2016-May-15 12:33N 37°37' E 023°44'8 7.9
2016-May-15 11:33N 37°44' E 023°40'8 8.0
2016-May-15 10:33N 37°51' E 023°35'7 6.6
2016-May-15 09:33N 37°57' E 023°33'4 4.4
2016-May-15 08:33N 38°02' E 023°35'0 0.3
2016-May-15 07:32N 38°02' E 023°36'0 0.0
2016-May-15 06:33N 38°02' E 023°36'0 0.0
2016-May-15 05:33N 38°02' E 023°36'0 0.0
2016-May-15 04:32N 38°02' E 023°36'0 0.0
2016-May-15 03:32N 38°02' E 023°36'0 0.0
2016-May-15 02:29N 38°02' E 023°36'0 0.0
2016-May-15 01:33N 38°02' E 023°36'0 0.0
2016-May-15 00:33N 38°02' E 023°36'0 0.0
2016-May-14 23:33N 38°02' E 023°36'0 0.0
2016-May-14 22:32N 38°02' E 023°36'0 0.0
2016-May-14 21:33N 38°02' E 023°36'0 0.0
2016-May-14 20:33N 38°02' E 023°36'0 0.0
2016-May-14 19:33N 38°02' E 023°36'0 0.0
2016-May-14 18:33N 38°02' E 023°36'0 0.0
2016-May-14 17:32N 38°02' E 023°36'0 0.0
2016-May-14 16:33N 38°02' E 023°36'0 0.0
2016-May-14 15:33N 38°02' E 023°36'0 0.0
2016-May-14 14:33N 38°02' E 023°36'0 0.0
2016-May-14 13:32N 38°02' E 023°36'0 0.0
2016-May-14 12:29N 38°02' E 023°36'0 0.0
2016-May-14 11:19N 38°02' E 023°36'0 0.0
2016-May-14 09:26N 38°02' E 023°36'0 0.0
2016-May-14 08:30N 38°02' E 023°36'0 0.0
2016-May-14 07:33N 38°02' E 023°36'0 0.0
2016-May-14 06:30N 38°02' E 023°36'0 0.0
2016-May-14 05:31N 38°02' E 023°36'0 0.0
2016-May-14 04:28N 38°02' E 023°36'0 0.0
2016-May-14 03:29N 38°02' E 023°36'0 0.0
2016-May-14 02:30N 38°02' E 023°36'0 0.0
2016-May-14 01:32N 38°02' E 023°36'0 0.0
2016-May-14 00:32N 38°02' E 023°36'0 0.0
2016-May-13 23:33N 38°02' E 023°36'0 0.0
2016-May-13 22:29N 38°02' E 023°36'0 0.0
2016-May-13 20:15N 38°02' E 023°36'0 0.0
2016-May-13 19:26N 38°02' E 023°36'0 0.2
2016-May-13 18:33N 38°02' E 023°36'5 5.0
2016-May-13 17:33N 37°57' E 023°36'2 2.1
2016-May-13 16:33N 37°55' E 023°37'0 0.3
2016-May-13 15:33N 37°54' E 023°37'8 7.8
2016-May-13 14:33N 37°47' E 023°41'9 8.8
2016-May-13 13:33N 37°39' E 023°46'12 8.7
2016-May-13 12:13N 37°32' E 023°57'  
Track history (hours):
 
Tides and Currents Weather Stations Pressure Air Temp Water Temp Dewpoint Dewpoint Depression Visibility Wind Speed Wind Dir Waves Ship Positions

Nepheli

Last reported at 2016-May-21 11:29 UTC. Time now 2016-May-25 22:43 UTC.
Position N 34°33' E 032°40'.

Length 90 m; draft 5.5 m.

Type: Tanker. MMSI: 370679000.

Date/timePositionNaut miles runAvg speedWind from/ knotsBaromVisibWave heightAir tempDewpointWater temp
2016-May-21 11:29N 34°33' E 032°40'8 8.2
2016-May-21 10:33N 34°33' E 032°49'8 8.2
2016-May-21 09:33N 34°30' E 032°59'7 7.1
2016-May-21 08:33N 34°36' E 033°04'4 4.0
2016-May-21 07:33N 34°40' E 033°04'0 0.0
2016-May-21 06:33N 34°40' E 033°04'1 1.3
2016-May-21 05:33N 34°40' E 033°05'  
2016-May-18 03:15N 34°30' E 032°56'6 8.1
2016-May-18 02:33N 34°31' E 032°50'  
2016-May-15 13:33N 37°31' E 023°50'8 7.9
2016-May-15 12:33N 37°37' E 023°44'8 7.9
2016-May-15 11:33N 37°44' E 023°40'8 8.0
2016-May-15 10:33N 37°51' E 023°35'7 6.6
2016-May-15 09:33N 37°57' E 023°33'4 4.4
2016-May-15 08:33N 38°02' E 023°35'0 0.3
2016-May-15 07:32N 38°02' E 023°36'0 0.0
2016-May-15 06:33N 38°02' E 023°36'0 0.0
2016-May-15 05:33N 38°02' E 023°36'0 0.0
2016-May-15 04:32N 38°02' E 023°36'0 0.0
2016-May-15 03:32N 38°02' E 023°36'0 0.0
2016-May-15 02:29N 38°02' E 023°36'0 0.0
2016-May-15 01:33N 38°02' E 023°36'0 0.0
2016-May-15 00:33N 38°02' E 023°36'0 0.0
2016-May-14 23:33N 38°02' E 023°36'0 0.0
2016-May-14 22:32N 38°02' E 023°36'0 0.0
2016-May-14 21:33N 38°02' E 023°36'0 0.0
2016-May-14 20:33N 38°02' E 023°36'0 0.0
2016-May-14 19:33N 38°02' E 023°36'0 0.0
2016-May-14 18:33N 38°02' E 023°36'0 0.0
2016-May-14 17:32N 38°02' E 023°36'0 0.0
2016-May-14 16:33N 38°02' E 023°36'0 0.0
2016-May-14 15:33N 38°02' E 023°36'0 0.0
2016-May-14 14:33N 38°02' E 023°36'0 0.0
2016-May-14 13:32N 38°02' E 023°36'0 0.0
2016-May-14 12:29N 38°02' E 023°36'0 0.0
2016-May-14 11:19N 38°02' E 023°36'0 0.0
2016-May-14 09:26N 38°02' E 023°36'0 0.0
2016-May-14 08:30N 38°02' E 023°36'0 0.0
2016-May-14 07:33N 38°02' E 023°36'0 0.0
2016-May-14 06:30N 38°02' E 023°36'0 0.0
2016-May-14 05:31N 38°02' E 023°36'0 0.0
2016-May-14 04:28N 38°02' E 023°36'0 0.0
2016-May-14 03:29N 38°02' E 023°36'0 0.0
2016-May-14 02:30N 38°02' E 023°36'0 0.0
2016-May-14 01:32N 38°02' E 023°36'0 0.0
2016-May-14 00:32N 38°02' E 023°36'0 0.0
2016-May-13 23:33N 38°02' E 023°36'0 0.0
2016-May-13 22:29N 38°02' E 023°36'0 0.0
2016-May-13 20:15N 38°02' E 023°36'0 0.0
2016-May-13 19:26N 38°02' E 023°36'0 0.2
2016-May-13 18:33N 38°02' E 023°36'5 5.0
2016-May-13 17:33N 37°57' E 023°36'2 2.1
2016-May-13 16:33N 37°55' E 023°37'0 0.3
2016-May-13 15:33N 37°54' E 023°37'8 7.8
2016-May-13 14:33N 37°47' E 023°41'9 8.8
2016-May-13 13:33N 37°39' E 023°46'12 8.7
2016-May-13 12:13N 37°32' E 023°57'  

Dump ship's entire track history